Powersville, Missouri
Current Conditions -  °F | °C
As of 9:35 PM on Friday 24 Oct 2014 (Local Time) from KTVK Reporting Station
Moderate Fog Moderate Fog  
Wind Chill: 12°   Ceiling: 500
Heat Index: 12°   Visibility: 0.5mi
Dew Point: 12°   Wind: 0mph
Humidity: 100%   Direction: NA
Pressure: 29.98"   Gusts: NA
Location:  40.55°N, 93.3°W
Report Text: KTVK 250235Z AUTO 00000KT 1/2SM FG VV005 12/12 A2998 RMK AO2
Loading
Personal Weather Stations






























Interactive Weather Map
Tropical Storm Tracking
New forecast layout! Learn more

10-Day Weather Forecast

Advertisements
Track Severe Weather on mobile